Decoded Metar for YBHM (HAMILTON ISLAND in AUSTRALIA) (IATA:N/A) | Meteo·Mobile Aviation Weather
aviador You're here:

YBHM Decoded Metar

HAMILTON ISLAND in AUSTRALIA
Report Time2019-10-22 14:00:00
UTC Time2019-10-22 14:40:16
Flight Rules mvfr MVFR
Wind120° at 24 kt
W.Decomp.*RWY 14: 21.2 kt HW 11.3 kt LCW
Visibility9999 m
Phenomena:N/A
Clouds:Broken 027 Hf
Broken 032 Hf
Expected CloudBase > 2,000 ft AGL from Temp-Dew spread
Ceiling2,700 ft
Temp23°C (ISA +8)
Dew Point18°C (74% RH)
AAT17.2°C
QNH1019 hPa
Density Alt1,020 ft
Elevation16 ft
Report Wrong Elevation
Raw Report
METAR YBHM 221400Z AUTO 12024KT 9999 // BKN027 BKN032 23/18 Q1019=

Extra information for YBHM:More info

Metar Taf Metar & Taf Last 4 Metars F.Rules Stats Wind Profile Meteogram Temp Stats Airport Information Weather charts Add Link Nearby VenuesMetar ALERT Operation Metar Decoded Social comments